Madera, PA (16661)

05:19 PM EDT die 02o September, anno 2014 (GMT -0400)
Tyrone | Change Station
CLOSE
Current Station
Personal Weather Stations
Location: Tyrone, PA
Elevation: 1138 ft
Nearby Weather Stations

Elev 1138 ft 40.68 °N, 78.26 °W | Updated 6 minutes ago

Plerumque Nubila
Plerumque Nubila
72.9 °F
Feels Like 71 °F
N
3.0
Ventus Variabilis Ventus from Magis Zephyrus quam Aquilo
Gusts 12.0 mph

Hodie
High -- | Low -- °F
--% Chance of Precip.
Yesterday
High -- | Low -- °F
Precip. -- in
6:41 AM 7:44 PM
First Quarter, 55% visible
Pressio 29.86 in
Visibilitas 3.0 milia passuum
Clouds Plerumque Nubila 3300 ft
Plerumque Nubila 4300 ft
Aequaliter Nubila 7000 ft
Index Caloris 71 °F
Frigus in quo Ros apparet 70 °F
Umor 90%
Rainfall 0.21 in
Snow Depth Not available.
UV 1 out of 12
Pollen 8.80 out of 12
Air Quality Not available.
Flu Activity Not available.
SPECI KFIG 022109Z AUTO 23006KT 3SM VCTS -RA BKN033 BKN043 OVC070 24/21 A2986 RMK AO2 LTG DSNT SE-W RAB00 P0004 T02390211

More Conditions Fewer Conditions

Pressio 29.86 in
Visibilitas 3.0 milia passuum
Clouds Plerumque Nubila 3300 ft
Plerumque Nubila 4300 ft
Aequaliter Nubila 7000 ft
Index Caloris 71 °F
Frigus in quo Ros apparet 70 °F
Umor 90%
Rainfall 0.21 in
Snow Depth Not available.
UV 1 out of 12
Pollen 8.80 out of 12
Air Quality Not available.
Flu Activity Not available.
SPECI KFIG 022109Z AUTO 23006KT 3SM VCTS -RA BKN033 BKN043 OVC070 24/21 A2986 RMK AO2 LTG DSNT SE-W RAB00 P0004 T02390211

More Conditions Fewer Conditions

10-Day Weather Forecast

Almanac

Astronomy

Sep. 02, 2014 Rise Set
Actual Time 6:41 AM EDT 7:44 PM EDT
Civil Twilight 6:13 AM EDT 8:12 PM EDT
Nautical Twilight 5:39 AM EDT 8:45 PM EDT
Astronomical Twilight 5:04 AM EDT 9:20 PM EDT
Moon 2:26 PM EDT Nulla Occasus Lunae
Length Of Visible Light 13h 59m
Length of Day
13h 02m
Tomorrow will be 2m 36s shorter.
First Quarter, 55% of the Moon is Illuminated
Hodie
First Quarter
Sep 8
Full
Sep 15
Last Quarter
Sep 24
New
Oct 1
First Quarter

Today's Extremes

State Highs State Lows

Community

WunderPhotos

Upload Photos

1,749,769 photos uploaded!

Nearby

Snow Depth

Station Depth Elevation
No new snow has been reported.

Earthquake Activity

City Distance Mag. Time & Date
No recent earthquake activity has been reported nearby.
Minimum magnitude displayed is 2.5.

Coastal Water Temperatures

Locus Calor
No Stations Reporting

Nearby Weather Stations